sensor_id;sensor_type;location;lat;lon;timestamp;P1;durP1;ratioP1;P2;durP2;ratioP2
83330;SDS011;73256;50.882;5.984;2023-12-14T00:00:28;32.27;;;16.60;;
83330;SDS011;73256;50.882;5.984;2023-12-14T00:02:53;29.77;;;15.63;;
83330;SDS011;73256;50.882;5.984;2023-12-14T00:05:19;32.28;;;16.35;;
83330;SDS011;73256;50.882;5.984;2023-12-14T00:07:44;31.10;;;15.87;;
83330;SDS011;73256;50.882;5.984;2023-12-14T00:10:10;30.40;;;14.67;;
83330;SDS011;73256;50.882;5.984;2023-12-14T00:12:37;29.27;;;14.93;;
83330;SDS011;73256;50.882;5.984;2023-12-14T00:15:02;28.30;;;14.13;;
83330;SDS011;73256;50.882;5.984;2023-12-14T00:17:28;26.15;;;13.73;;
83330;SDS011;73256;50.882;5.984;2023-12-14T00:19:53;31.23;;;15.10;;
83330;SDS011;73256;50.882;5.984;2023-12-14T00:22:19;28.13;;;15.30;;
83330;SDS011;73256;50.882;5.984;2023-12-14T00:24:44;26.97;;;14.97;;
83330;SDS011;73256;50.882;5.984;2023-12-14T00:27:09;30.27;;;14.87;;
83330;SDS011;73256;50.882;5.984;2023-12-14T00:29:35;26.13;;;14.33;;
83330;SDS011;73256;50.882;5.984;2023-12-14T00:32:00;27.02;;;14.70;;
83330;SDS011;73256;50.882;5.984;2023-12-14T00:34:29;26.53;;;14.63;;
83330;SDS011;73256;50.882;5.984;2023-12-14T00:36:55;27.50;;;14.32;;
83330;SDS011;73256;50.882;5.984;2023-12-14T00:39:20;25.20;;;13.80;;
83330;SDS011;73256;50.882;5.984;2023-12-14T00:41:46;23.83;;;14.50;;
83330;SDS011;73256;50.882;5.984;2023-12-14T00:44:11;24.63;;;14.23;;
83330;SDS011;73256;50.882;5.984;2023-12-14T00:46:37;25.40;;;14.10;;
83330;SDS011;73256;50.882;5.984;2023-12-14T00:49:02;26.67;;;13.87;;
83330;SDS011;73256;50.882;5.984;2023-12-14T00:51:28;24.37;;;13.47;;
83330;SDS011;73256;50.882;5.984;2023-12-14T00:53:53;27.87;;;13.53;;
83330;SDS011;73256;50.882;5.984;2023-12-14T00:56:19;22.48;;;13.30;;
83330;SDS011;73256;50.882;5.984;2023-12-14T00:58:44;25.77;;;13.90;;
83330;SDS011;73256;50.882;5.984;2023-12-14T01:01:10;28.57;;;14.73;;
83330;SDS011;73256;50.882;5.984;2023-12-14T01:03:35;25.85;;;14.93;;
83330;SDS011;73256;50.882;5.984;2023-12-14T01:06:00;29.90;;;15.63;;
83330;SDS011;73256;50.882;5.984;2023-12-14T01:08:26;27.60;;;14.97;;
83330;SDS011;73256;50.882;5.984;2023-12-14T01:10:51;29.13;;;15.53;;
83330;SDS011;73256;50.882;5.984;2023-12-14T01:13:16;31.10;;;15.03;;
83330;SDS011;73256;50.882;5.984;2023-12-14T01:15:42;36.47;;;17.90;;
83330;SDS011;73256;50.882;5.984;2023-12-14T01:18:07;31.70;;;14.53;;
83330;SDS011;73256;50.882;5.984;2023-12-14T01:20:33;32.70;;;16.33;;
83330;SDS011;73256;50.882;5.984;2023-12-14T01:22:58;30.70;;;16.13;;
83330;SDS011;73256;50.882;5.984;2023-12-14T01:25:23;32.03;;;14.77;;
83330;SDS011;73256;50.882;5.984;2023-12-14T01:27:49;31.13;;;15.53;;
83330;SDS011;73256;50.882;5.984;2023-12-14T01:30:14;28.33;;;15.20;;
83330;SDS011;73256;50.882;5.984;2023-12-14T01:32:40;30.47;;;15.73;;
83330;SDS011;73256;50.882;5.984;2023-12-14T01:35:05;35.27;;;17.40;;
83330;SDS011;73256;50.882;5.984;2023-12-14T01:37:31;40.07;;;17.50;;
83330;SDS011;73256;50.882;5.984;2023-12-14T01:39:56;31.35;;;15.35;;
83330;SDS011;73256;50.882;5.984;2023-12-14T01:42:21;32.93;;;16.57;;
83330;SDS011;73256;50.882;5.984;2023-12-14T01:44:47;34.30;;;17.27;;
83330;SDS011;73256;50.882;5.984;2023-12-14T01:47:12;34.83;;;16.50;;
83330;SDS011;73256;50.882;5.984;2023-12-14T01:49:38;37.80;;;17.93;;
83330;SDS011;73256;50.882;5.984;2023-12-14T01:52:04;36.43;;;17.83;;
83330;SDS011;73256;50.882;5.984;2023-12-14T01:54:30;37.00;;;17.58;;
83330;SDS011;73256;50.882;5.984;2023-12-14T01:56:56;38.57;;;17.33;;
83330;SDS011;73256;50.882;5.984;2023-12-14T01:59:21;38.27;;;17.93;;
83330;SDS011;73256;50.882;5.984;2023-12-14T02:01:47;38.35;;;16.73;;
83330;SDS011;73256;50.882;5.984;2023-12-14T02:04:17;39.70;;;16.73;;
83330;SDS011;73256;50.882;5.984;2023-12-14T02:06:43;42.03;;;17.93;;
83330;SDS011;73256;50.882;5.984;2023-12-14T02:09:08;34.97;;;16.37;;
83330;SDS011;73256;50.882;5.984;2023-12-14T02:11:35;35.28;;;16.38;;
83330;SDS011;73256;50.882;5.984;2023-12-14T02:14:08;35.47;;;16.03;;
83330;SDS011;73256;50.882;5.984;2023-12-14T02:16:34;33.55;;;15.05;;
83330;SDS011;73256;50.882;5.984;2023-12-14T02:18:59;34.13;;;15.70;;
83330;SDS011;73256;50.882;5.984;2023-12-14T02:21:25;39.23;;;16.30;;
83330;SDS011;73256;50.882;5.984;2023-12-14T02:23:50;30.07;;;14.43;;
83330;SDS011;73256;50.882;5.984;2023-12-14T02:26:16;33.05;;;14.57;;
83330;SDS011;73256;50.882;5.984;2023-12-14T02:28:41;30.10;;;13.13;;
83330;SDS011;73256;50.882;5.984;2023-12-14T02:31:07;30.70;;;13.77;;
83330;SDS011;73256;50.882;5.984;2023-12-14T02:33:32;28.65;;;13.73;;
83330;SDS011;73256;50.882;5.984;2023-12-14T02:35:58;28.90;;;13.47;;
83330;SDS011;73256;50.882;5.984;2023-12-14T02:38:24;27.33;;;12.75;;
83330;SDS011;73256;50.882;5.984;2023-12-14T02:40:49;23.20;;;11.90;;
83330;SDS011;73256;50.882;5.984;2023-12-14T02:43:16;24.83;;;11.57;;
83330;SDS011;73256;50.882;5.984;2023-12-14T02:45:41;25.03;;;12.17;;
83330;SDS011;73256;50.882;5.984;2023-12-14T02:48:06;22.00;;;10.43;;
83330;SDS011;73256;50.882;5.984;2023-12-14T02:50:32;24.13;;;11.27;;
83330;SDS011;73256;50.882;5.984;2023-12-14T02:52:57;22.52;;;11.10;;
83330;SDS011;73256;50.882;5.984;2023-12-14T02:55:23;21.00;;;10.87;;
83330;SDS011;73256;50.882;5.984;2023-12-14T02:57:48;20.50;;;10.07;;
83330;SDS011;73256;50.882;5.984;2023-12-14T03:00:14;20.20;;;9.63;;
83330;SDS011;73256;50.882;5.984;2023-12-14T03:02:39;18.88;;;9.85;;
83330;SDS011;73256;50.882;5.984;2023-12-14T03:05:05;21.10;;;9.97;;
83330;SDS011;73256;50.882;5.984;2023-12-14T03:07:31;18.20;;;9.20;;
83330;SDS011;73256;50.882;5.984;2023-12-14T03:09:56;19.90;;;9.93;;
83330;SDS011;73256;50.882;5.984;2023-12-14T03:12:21;18.50;;;8.83;;
83330;SDS011;73256;50.882;5.984;2023-12-14T03:14:47;18.63;;;9.73;;
83330;SDS011;73256;50.882;5.984;2023-12-14T03:17:12;21.02;;;9.63;;
83330;SDS011;73256;50.882;5.984;2023-12-14T03:19:41;21.53;;;9.40;;
83330;SDS011;73256;50.882;5.984;2023-12-14T03:22:06;19.75;;;10.70;;
83330;SDS011;73256;50.882;5.984;2023-12-14T03:24:32;21.73;;;10.17;;
83330;SDS011;73256;50.882;5.984;2023-12-14T03:26:58;20.23;;;9.75;;
83330;SDS011;73256;50.882;5.984;2023-12-14T03:29:23;19.03;;;9.87;;
83330;SDS011;73256;50.882;5.984;2023-12-14T03:31:48;21.80;;;10.57;;
83330;SDS011;73256;50.882;5.984;2023-12-14T03:34:14;22.47;;;10.80;;
83330;SDS011;73256;50.882;5.984;2023-12-14T03:36:39;22.00;;;10.47;;
83330;SDS011;73256;50.882;5.984;2023-12-14T03:39:04;20.55;;;10.18;;
83330;SDS011;73256;50.882;5.984;2023-12-14T03:41:31;22.27;;;10.82;;
83330;SDS011;73256;50.882;5.984;2023-12-14T03:43:57;21.00;;;10.80;;
83330;SDS011;73256;50.882;5.984;2023-12-14T03:46:22;23.77;;;11.35;;
83330;SDS011;73256;50.882;5.984;2023-12-14T03:48:48;20.20;;;10.07;;
83330;SDS011;73256;50.882;5.984;2023-12-14T03:51:13;21.47;;;10.53;;
83330;SDS011;73256;50.882;5.984;2023-12-14T03:53:39;22.73;;;10.23;;
83330;SDS011;73256;50.882;5.984;2023-12-14T03:56:05;22.08;;;10.82;;
83330;SDS011;73256;50.882;5.984;2023-12-14T03:58:30;22.17;;;10.80;;
83330;SDS011;73256;50.882;5.984;2023-12-14T04:00:56;22.80;;;10.60;;
83330;SDS011;73256;50.882;5.984;2023-12-14T04:03:21;26.70;;;12.23;;
83330;SDS011;73256;50.882;5.984;2023-12-14T04:05:47;20.03;;;10.33;;
83330;SDS011;73256;50.882;5.984;2023-12-14T04:08:12;23.77;;;10.37;;
83330;SDS011;73256;50.882;5.984;2023-12-14T04:10:37;20.90;;;10.63;;
83330;SDS011;73256;50.882;5.984;2023-12-14T04:13:03;20.40;;;9.73;;
83330;SDS011;73256;50.882;5.984;2023-12-14T04:15:28;20.90;;;10.33;;
83330;SDS011;73256;50.882;5.984;2023-12-14T04:17:53;22.23;;;10.47;;
83330;SDS011;73256;50.882;5.984;2023-12-14T04:20:19;21.87;;;10.27;;
83330;SDS011;73256;50.882;5.984;2023-12-14T04:22:44;23.05;;;10.82;;
83330;SDS011;73256;50.882;5.984;2023-12-14T04:25:10;21.97;;;11.10;;
83330;SDS011;73256;50.882;5.984;2023-12-14T04:27:35;20.07;;;10.07;;
83330;SDS011;73256;50.882;5.984;2023-12-14T04:30:01;20.53;;;9.70;;
83330;SDS011;73256;50.882;5.984;2023-12-14T04:32:26;21.83;;;10.00;;
83330;SDS011;73256;50.882;5.984;2023-12-14T04:34:53;20.45;;;9.77;;
83330;SDS011;73256;50.882;5.984;2023-12-14T04:37:18;19.67;;;9.43;;
83330;SDS011;73256;50.882;5.984;2023-12-14T04:39:44;21.43;;;11.00;;
83330;SDS011;73256;50.882;5.984;2023-12-14T04:42:09;19.63;;;9.40;;
83330;SDS011;73256;50.882;5.984;2023-12-14T04:44:34;20.60;;;9.30;;
83330;SDS011;73256;50.882;5.984;2023-12-14T04:47:00;18.45;;;8.50;;
83330;SDS011;73256;50.882;5.984;2023-12-14T04:49:25;16.93;;;8.10;;
83330;SDS011;73256;50.882;5.984;2023-12-14T04:51:51;18.33;;;8.77;;
83330;SDS011;73256;50.882;5.984;2023-12-14T04:54:16;17.67;;;8.27;;
83330;SDS011;73256;50.882;5.984;2023-12-14T04:56:44;18.40;;;8.38;;
83330;SDS011;73256;50.882;5.984;2023-12-14T04:59:10;16.73;;;8.10;;
83330;SDS011;73256;50.882;5.984;2023-12-14T05:01:36;19.83;;;9.35;;
83330;SDS011;73256;50.882;5.984;2023-12-14T05:04:01;20.47;;;8.53;;
83330;SDS011;73256;50.882;5.984;2023-12-14T05:06:27;20.67;;;9.73;;
83330;SDS011;73256;50.882;5.984;2023-12-14T05:08:53;22.77;;;10.07;;
83330;SDS011;73256;50.882;5.984;2023-12-14T05:11:18;21.97;;;9.50;;
83330;SDS011;73256;50.882;5.984;2023-12-14T05:13:44;21.80;;;10.13;;
83330;SDS011;73256;50.882;5.984;2023-12-14T05:16:13;22.55;;;10.85;;
83330;SDS011;73256;50.882;5.984;2023-12-14T05:18:39;20.83;;;9.85;;
83330;SDS011;73256;50.882;5.984;2023-12-14T05:21:05;22.77;;;11.20;;
83330;SDS011;73256;50.882;5.984;2023-12-14T05:23:30;25.13;;;10.63;;
83330;SDS011;73256;50.882;5.984;2023-12-14T05:25:56;21.23;;;9.77;;
83330;SDS011;73256;50.882;5.984;2023-12-14T05:28:21;21.50;;;9.60;;
83330;SDS011;73256;50.882;5.984;2023-12-14T05:30:46;18.77;;;9.27;;
83330;SDS011;73256;50.882;5.984;2023-12-14T05:33:12;17.73;;;8.47;;
83330;SDS011;73256;50.882;5.984;2023-12-14T05:35:37;17.93;;;8.73;;
83330;SDS011;73256;50.882;5.984;2023-12-14T05:38:02;19.55;;;8.32;;
83330;SDS011;73256;50.882;5.984;2023-12-14T05:40:28;17.23;;;8.03;;
83330;SDS011;73256;50.882;5.984;2023-12-14T05:42:54;16.30;;;7.60;;
83330;SDS011;73256;50.882;5.984;2023-12-14T05:45:19;16.15;;;8.43;;
83330;SDS011;73256;50.882;5.984;2023-12-14T05:47:45;16.20;;;7.57;;
83330;SDS011;73256;50.882;5.984;2023-12-14T05:50:10;15.30;;;7.87;;
83330;SDS011;73256;50.882;5.984;2023-12-14T05:52:36;13.65;;;7.40;;
83330;SDS011;73256;50.882;5.984;2023-12-14T05:55:03;15.53;;;8.03;;
83330;SDS011;73256;50.882;5.984;2023-12-14T05:57:29;17.08;;;8.27;;
83330;SDS011;73256;50.882;5.984;2023-12-14T05:59:54;18.77;;;8.87;;
83330;SDS011;73256;50.882;5.984;2023-12-14T06:02:19;18.13;;;8.60;;
83330;SDS011;73256;50.882;5.984;2023-12-14T06:04:45;18.43;;;9.13;;
83330;SDS011;73256;50.882;5.984;2023-12-14T06:07:10;19.47;;;9.17;;
83330;SDS011;73256;50.882;5.984;2023-12-14T06:09:36;19.40;;;9.40;;
83330;SDS011;73256;50.882;5.984;2023-12-14T06:12:02;19.67;;;9.00;;
83330;SDS011;73256;50.882;5.984;2023-12-14T06:14:29;18.93;;;9.43;;
83330;SDS011;73256;50.882;5.984;2023-12-14T06:16:54;19.58;;;9.48;;
83330;SDS011;73256;50.882;5.984;2023-12-14T06:19:20;20.23;;;8.90;;
83330;SDS011;73256;50.882;5.984;2023-12-14T06:21:45;20.53;;;9.63;;
83330;SDS011;73256;50.882;5.984;2023-12-14T06:24:11;20.90;;;9.27;;
83330;SDS011;73256;50.882;5.984;2023-12-14T06:26:43;19.57;;;8.40;;
83330;SDS011;73256;50.882;5.984;2023-12-14T06:29:09;21.67;;;9.63;;
83330;SDS011;73256;50.882;5.984;2023-12-14T06:31:35;16.75;;;8.40;;
83330;SDS011;73256;50.882;5.984;2023-12-14T06:34:00;18.30;;;8.67;;
83330;SDS011;73256;50.882;5.984;2023-12-14T06:36:29;18.33;;;8.27;;
83330;SDS011;73256;50.882;5.984;2023-12-14T06:38:55;17.63;;;8.88;;
83330;SDS011;73256;50.882;5.984;2023-12-14T06:41:22;19.33;;;8.90;;
83330;SDS011;73256;50.882;5.984;2023-12-14T06:43:48;19.30;;;9.25;;
83330;SDS011;73256;50.882;5.984;2023-12-14T06:46:14;17.97;;;8.43;;
83330;SDS011;73256;50.882;5.984;2023-12-14T06:48:39;21.02;;;9.20;;
83330;SDS011;73256;50.882;5.984;2023-12-14T06:51:05;16.97;;;8.03;;
83330;SDS011;73256;50.882;5.984;2023-12-14T06:53:31;15.73;;;7.73;;
83330;SDS011;73256;50.882;5.984;2023-12-14T06:55:56;16.53;;;8.47;;
83330;SDS011;73256;50.882;5.984;2023-12-14T06:58:21;18.85;;;8.30;;
83330;SDS011;73256;50.882;5.984;2023-12-14T07:00:47;18.20;;;8.60;;
83330;SDS011;73256;50.882;5.984;2023-12-14T07:03:13;18.30;;;8.57;;
83330;SDS011;73256;50.882;5.984;2023-12-14T07:05:39;18.08;;;8.02;;
83330;SDS011;73256;50.882;5.984;2023-12-14T07:08:04;20.00;;;9.07;;
83330;SDS011;73256;50.882;5.984;2023-12-14T07:10:30;20.02;;;9.38;;
83330;SDS011;73256;50.882;5.984;2023-12-14T07:12:57;20.77;;;9.00;;
83330;SDS011;73256;50.882;5.984;2023-12-14T07:15:22;23.77;;;10.50;;
83330;SDS011;73256;50.882;5.984;2023-12-14T07:17:47;24.70;;;10.73;;
83330;SDS011;73256;50.882;5.984;2023-12-14T07:20:13;20.93;;;10.00;;
83330;SDS011;73256;50.882;5.984;2023-12-14T07:22:38;24.73;;;10.50;;
83330;SDS011;73256;50.882;5.984;2023-12-14T07:25:04;22.17;;;10.10;;
83330;SDS011;73256;50.882;5.984;2023-12-14T07:27:29;22.63;;;10.23;;
83330;SDS011;73256;50.882;5.984;2023-12-14T07:29:55;22.73;;;9.57;;
83330;SDS011;73256;50.882;5.984;2023-12-14T07:32:20;21.17;;;10.07;;
83330;SDS011;73256;50.882;5.984;2023-12-14T07:34:46;20.67;;;9.07;;
83330;SDS011;73256;50.882;5.984;2023-12-14T07:37:11;21.85;;;10.90;;
83330;SDS011;73256;50.882;5.984;2023-12-14T07:39:37;26.70;;;10.67;;
83330;SDS011;73256;50.882;5.984;2023-12-14T07:42:02;21.83;;;9.83;;
83330;SDS011;73256;50.882;5.984;2023-12-14T07:44:28;22.65;;;10.70;;
83330;SDS011;73256;50.882;5.984;2023-12-14T07:46:55;22.50;;;10.77;;
83330;SDS011;73256;50.882;5.984;2023-12-14T07:49:21;22.90;;;10.27;;
83330;SDS011;73256;50.882;5.984;2023-12-14T07:51:48;24.58;;;10.48;;
83330;SDS011;73256;50.882;5.984;2023-12-14T07:54:14;23.27;;;10.80;;
83330;SDS011;73256;50.882;5.984;2023-12-14T07:56:39;22.60;;;10.57;;
83330;SDS011;73256;50.882;5.984;2023-12-14T07:59:05;22.03;;;10.57;;
83330;SDS011;73256;50.882;5.984;2023-12-14T08:01:32;23.27;;;10.68;;
83330;SDS011;73256;50.882;5.984;2023-12-14T08:03:58;21.92;;;10.68;;
83330;SDS011;73256;50.882;5.984;2023-12-14T08:06:24;20.77;;;10.50;;
83330;SDS011;73256;50.882;5.984;2023-12-14T08:08:49;23.27;;;10.13;;
83330;SDS011;73256;50.882;5.984;2023-12-14T08:11:15;22.90;;;10.40;;
83330;SDS011;73256;50.882;5.984;2023-12-14T08:13:41;20.92;;;10.98;;
83330;SDS011;73256;50.882;5.984;2023-12-14T08:16:09;19.07;;;9.07;;
83330;SDS011;73256;50.882;5.984;2023-12-14T08:18:36;22.52;;;10.07;;
83330;SDS011;73256;50.882;5.984;2023-12-14T08:21:02;21.92;;;10.68;;
83330;SDS011;73256;50.882;5.984;2023-12-14T08:23:27;22.63;;;10.90;;
83330;SDS011;73256;50.882;5.984;2023-12-14T08:25:55;21.55;;;10.50;;
83330;SDS011;73256;50.882;5.984;2023-12-14T08:28:24;19.52;;;10.13;;
83330;SDS011;73256;50.882;5.984;2023-12-14T08:30:50;20.60;;;10.10;;
83330;SDS011;73256;50.882;5.984;2023-12-14T08:33:15;22.00;;;10.03;;
83330;SDS011;73256;50.882;5.984;2023-12-14T08:35:41;22.57;;;9.97;;
83330;SDS011;73256;50.882;5.984;2023-12-14T08:38:06;19.07;;;9.87;;
83330;SDS011;73256;50.882;5.984;2023-12-14T08:40:32;20.52;;;9.75;;
83330;SDS011;73256;50.882;5.984;2023-12-14T08:42:57;19.53;;;9.87;;
83330;SDS011;73256;50.882;5.984;2023-12-14T08:45:23;19.20;;;8.70;;
83330;SDS011;73256;50.882;5.984;2023-12-14T08:47:48;23.40;;;9.30;;
83330;SDS011;73256;50.882;5.984;2023-12-14T08:50:13;23.30;;;9.25;;
83330;SDS011;73256;50.882;5.984;2023-12-14T08:52:39;19.87;;;9.73;;
83330;SDS011;73256;50.882;5.984;2023-12-14T08:55:04;21.10;;;10.27;;
83330;SDS011;73256;50.882;5.984;2023-12-14T08:57:30;20.95;;;10.23;;
83330;SDS011;73256;50.882;5.984;2023-12-14T08:59:56;19.17;;;9.03;;
83330;SDS011;73256;50.882;5.984;2023-12-14T09:02:21;17.87;;;8.63;;
83330;SDS011;73256;50.882;5.984;2023-12-14T09:04:47;18.92;;;9.25;;
83330;SDS011;73256;50.882;5.984;2023-12-14T09:07:12;16.40;;;8.40;;
83330;SDS011;73256;50.882;5.984;2023-12-14T09:09:38;18.00;;;8.97;;
83330;SDS011;73256;50.882;5.984;2023-12-14T09:12:03;16.97;;;9.33;;
83330;SDS011;73256;50.882;5.984;2023-12-14T09:14:29;18.00;;;9.05;;
83330;SDS011;73256;50.882;5.984;2023-12-14T09:16:54;18.23;;;9.30;;
83330;SDS011;73256;50.882;5.984;2023-12-14T09:19:20;19.58;;;10.00;;
83330;SDS011;73256;50.882;5.984;2023-12-14T09:21:45;18.95;;;9.75;;
83330;SDS011;73256;50.882;5.984;2023-12-14T09:24:11;17.77;;;9.40;;
83330;SDS011;73256;50.882;5.984;2023-12-14T09:26:36;18.77;;;9.00;;
83330;SDS011;73256;50.882;5.984;2023-12-14T09:29:02;18.08;;;9.25;;
83330;SDS011;73256;50.882;5.984;2023-12-14T09:31:27;16.90;;;8.30;;
83330;SDS011;73256;50.882;5.984;2023-12-14T09:33:53;16.73;;;8.60;;
83330;SDS011;73256;50.882;5.984;2023-12-14T09:36:18;17.15;;;9.15;;
83330;SDS011;73256;50.882;5.984;2023-12-14T09:38:44;17.57;;;9.27;;
83330;SDS011;73256;50.882;5.984;2023-12-14T09:41:10;18.52;;;9.25;;
83330;SDS011;73256;50.882;5.984;2023-12-14T09:43:36;18.93;;;9.73;;
83330;SDS011;73256;50.882;5.984;2023-12-14T09:46:02;18.15;;;8.88;;
83330;SDS011;73256;50.882;5.984;2023-12-14T09:48:28;17.58;;;9.13;;
83330;SDS011;73256;50.882;5.984;2023-12-14T09:50:54;20.30;;;9.38;;
83330;SDS011;73256;50.882;5.984;2023-12-14T09:53:20;20.77;;;10.27;;
83330;SDS011;73256;50.882;5.984;2023-12-14T09:55:45;18.30;;;9.63;;
83330;SDS011;73256;50.882;5.984;2023-12-14T09:58:11;18.97;;;9.80;;
83330;SDS011;73256;50.882;5.984;2023-12-14T10:00:38;19.40;;;9.25;;
83330;SDS011;73256;50.882;5.984;2023-12-14T10:03:17;18.77;;;9.48;;
83330;SDS011;73256;50.882;5.984;2023-12-14T10:05:43;19.52;;;9.93;;
83330;SDS011;73256;50.882;5.984;2023-12-14T10:08:08;16.90;;;8.93;;
83330;SDS011;73256;50.882;5.984;2023-12-14T10:10:34;18.17;;;9.70;;
83330;SDS011;73256;50.882;5.984;2023-12-14T10:12:59;20.40;;;10.20;;
83330;SDS011;73256;50.882;5.984;2023-12-14T10:15:25;20.50;;;10.00;;
83330;SDS011;73256;50.882;5.984;2023-12-14T10:17:52;17.80;;;9.30;;
83330;SDS011;73256;50.882;5.984;2023-12-14T10:20:19;19.30;;;9.48;;
83330;SDS011;73256;50.882;5.984;2023-12-14T10:22:48;17.80;;;9.48;;
83330;SDS011;73256;50.882;5.984;2023-12-14T10:25:15;18.80;;;9.35;;
83330;SDS011;73256;50.882;5.984;2023-12-14T10:27:40;17.80;;;9.60;;
83330;SDS011;73256;50.882;5.984;2023-12-14T10:30:08;19.40;;;10.13;;
83330;SDS011;73256;50.882;5.984;2023-12-14T10:32:37;19.17;;;10.00;;
83330;SDS011;73256;50.882;5.984;2023-12-14T10:35:03;19.35;;;10.27;;
83330;SDS011;73256;50.882;5.984;2023-12-14T10:37:29;18.50;;;9.23;;
83330;SDS011;73256;50.882;5.984;2023-12-14T10:39:54;18.48;;;9.32;;
83330;SDS011;73256;50.882;5.984;2023-12-14T10:42:42;19.63;;;9.13;;
83330;SDS011;73256;50.882;5.984;2023-12-14T10:45:08;19.45;;;9.52;;
83330;SDS011;73256;50.882;5.984;2023-12-14T10:47:37;22.10;;;10.07;;
83330;SDS011;73256;50.882;5.984;2023-12-14T10:50:04;18.73;;;8.98;;
83330;SDS011;73256;50.882;5.984;2023-12-14T10:52:30;19.48;;;9.70;;
83330;SDS011;73256;50.882;5.984;2023-12-14T10:55:00;18.10;;;9.67;;
83330;SDS011;73256;50.882;5.984;2023-12-14T10:57:28;16.88;;;9.20;;
83330;SDS011;73256;50.882;5.984;2023-12-14T11:00:00;15.27;;;8.30;;
83330;SDS011;73256;50.882;5.984;2023-12-14T11:02:27;15.88;;;8.48;;
83330;SDS011;73256;50.882;5.984;2023-12-14T11:04:56;17.33;;;8.63;;
83330;SDS011;73256;50.882;5.984;2023-12-14T11:10:43;15.30;;;7.63;;
83330;SDS011;73256;50.882;5.984;2023-12-14T11:13:17;14.67;;;7.33;;
83330;SDS011;73256;50.882;5.984;2023-12-14T11:15:49;15.75;;;7.40;;
83330;SDS011;73256;50.882;5.984;2023-12-14T11:23:09;15.45;;;7.80;;
83330;SDS011;73256;50.882;5.984;2023-12-14T11:25:35;13.53;;;6.93;;
83330;SDS011;73256;50.882;5.984;2023-12-14T11:28:04;16.70;;;8.70;;
83330;SDS011;73256;50.882;5.984;2023-12-14T11:30:30;14.38;;;7.75;;
83330;SDS011;73256;50.882;5.984;2023-12-14T11:32:56;15.52;;;7.40;;
83330;SDS011;73256;50.882;5.984;2023-12-14T11:35:22;18.03;;;8.47;;
83330;SDS011;73256;50.882;5.984;2023-12-14T11:37:47;16.52;;;7.88;;
83330;SDS011;73256;50.882;5.984;2023-12-14T11:40:15;15.53;;;8.03;;
83330;SDS011;73256;50.882;5.984;2023-12-14T11:42:56;15.50;;;7.78;;
83330;SDS011;73256;50.882;5.984;2023-12-14T11:45:25;17.95;;;8.93;;
83330;SDS011;73256;50.882;5.984;2023-12-14T11:47:51;16.15;;;7.72;;
83330;SDS011;73256;50.882;5.984;2023-12-14T11:50:17;17.33;;;7.67;;
83330;SDS011;73256;50.882;5.984;2023-12-14T11:52:42;17.08;;;8.27;;
83330;SDS011;73256;50.882;5.984;2023-12-14T11:55:10;21.77;;;9.27;;
83330;SDS011;73256;50.882;5.984;2023-12-14T11:57:35;14.70;;;7.73;;
83330;SDS011;73256;50.882;5.984;2023-12-14T12:00:01;15.83;;;8.27;;
83330;SDS011;73256;50.882;5.984;2023-12-14T12:02:27;15.00;;;7.57;;
83330;SDS011;73256;50.882;5.984;2023-12-14T12:04:52;16.83;;;7.47;;
83330;SDS011;73256;50.882;5.984;2023-12-14T12:07:18;16.33;;;7.87;;
83330;SDS011;73256;50.882;5.984;2023-12-14T12:09:44;15.70;;;7.93;;
83330;SDS011;73256;50.882;5.984;2023-12-14T12:12:13;17.17;;;8.20;;
83330;SDS011;73256;50.882;5.984;2023-12-14T12:14:41;14.70;;;7.70;;
83330;SDS011;73256;50.882;5.984;2023-12-14T12:17:08;15.63;;;6.82;;
83330;SDS011;73256;50.882;5.984;2023-12-14T12:19:34;14.07;;;7.80;;
83330;SDS011;73256;50.882;5.984;2023-12-14T12:22:00;14.60;;;7.05;;
83330;SDS011;73256;50.882;5.984;2023-12-14T12:24:25;16.77;;;8.53;;
83330;SDS011;73256;50.882;5.984;2023-12-14T12:26:51;14.87;;;7.30;;
83330;SDS011;73256;50.882;5.984;2023-12-14T12:29:16;15.27;;;7.17;;
83330;SDS011;73256;50.882;5.984;2023-12-14T12:31:41;16.53;;;7.57;;
83330;SDS011;73256;50.882;5.984;2023-12-14T12:34:08;14.05;;;7.00;;
83330;SDS011;73256;50.882;5.984;2023-12-14T12:36:34;15.13;;;6.80;;
83330;SDS011;73256;50.882;5.984;2023-12-14T12:39:01;13.48;;;7.32;;
83330;SDS011;73256;50.882;5.984;2023-12-14T12:41:28;13.80;;;7.30;;
83330;SDS011;73256;50.882;5.984;2023-12-14T12:43:53;13.75;;;7.15;;
83330;SDS011;73256;50.882;5.984;2023-12-14T12:46:19;15.50;;;7.63;;
83330;SDS011;73256;50.882;5.984;2023-12-14T12:48:44;17.57;;;8.40;;
83330;SDS011;73256;50.882;5.984;2023-12-14T12:51:11;15.10;;;8.60;;
83330;SDS011;73256;50.882;5.984;2023-12-14T12:53:37;15.93;;;8.13;;
83330;SDS011;73256;50.882;5.984;2023-12-14T12:56:03;15.90;;;7.70;;
83330;SDS011;73256;50.882;5.984;2023-12-14T12:58:29;14.47;;;7.53;;
83330;SDS011;73256;50.882;5.984;2023-12-14T13:00:54;14.93;;;8.15;;
83330;SDS011;73256;50.882;5.984;2023-12-14T13:03:20;13.07;;;7.25;;
83330;SDS011;73256;50.882;5.984;2023-12-14T13:05:46;13.57;;;7.17;;
83330;SDS011;73256;50.882;5.984;2023-12-14T13:08:11;11.30;;;6.47;;
83330;SDS011;73256;50.882;5.984;2023-12-14T13:10:36;12.70;;;6.70;;
83330;SDS011;73256;50.882;5.984;2023-12-14T13:13:04;13.02;;;7.00;;
83330;SDS011;73256;50.882;5.984;2023-12-14T13:15:29;14.80;;;6.53;;
83330;SDS011;73256;50.882;5.984;2023-12-14T13:17:56;12.70;;;6.63;;
83330;SDS011;73256;50.882;5.984;2023-12-14T13:20:22;9.15;;;5.25;;
83330;SDS011;73256;50.882;5.984;2023-12-14T13:22:47;9.15;;;5.45;;
83330;SDS011;73256;50.882;5.984;2023-12-14T13:25:13;11.30;;;5.63;;
83330;SDS011;73256;50.882;5.984;2023-12-14T13:27:39;10.20;;;6.05;;
83330;SDS011;73256;50.882;5.984;2023-12-14T13:30:06;12.03;;;5.50;;
83330;SDS011;73256;50.882;5.984;2023-12-14T13:32:33;9.88;;;5.28;;
83330;SDS011;73256;50.882;5.984;2023-12-14T13:34:58;9.33;;;5.40;;
83330;SDS011;73256;50.882;5.984;2023-12-14T13:37:23;11.60;;;5.60;;
83330;SDS011;73256;50.882;5.984;2023-12-14T13:39:49;9.17;;;5.30;;
83330;SDS011;73256;50.882;5.984;2023-12-14T13:42:15;8.90;;;4.90;;
83330;SDS011;73256;50.882;5.984;2023-12-14T13:44:40;9.43;;;5.70;;
83330;SDS011;73256;50.882;5.984;2023-12-14T13:47:06;10.25;;;5.53;;
83330;SDS011;73256;50.882;5.984;2023-12-14T13:49:32;9.87;;;5.33;;
83330;SDS011;73256;50.882;5.984;2023-12-14T13:51:57;8.45;;;5.00;;
83330;SDS011;73256;50.882;5.984;2023-12-14T13:54:25;8.57;;;4.77;;
83330;SDS011;73256;50.882;5.984;2023-12-14T13:56:51;9.70;;;4.95;;
83330;SDS011;73256;50.882;5.984;2023-12-14T13:59:19;8.60;;;4.87;;
83330;SDS011;73256;50.882;5.984;2023-12-14T14:01:45;8.10;;;4.65;;
83330;SDS011;73256;50.882;5.984;2023-12-14T14:04:10;8.20;;;5.00;;
83330;SDS011;73256;50.882;5.984;2023-12-14T14:06:35;9.23;;;4.60;;
83330;SDS011;73256;50.882;5.984;2023-12-14T14:09:01;8.70;;;5.00;;
83330;SDS011;73256;50.882;5.984;2023-12-14T14:11:26;10.47;;;5.07;;
83330;SDS011;73256;50.882;5.984;2023-12-14T14:13:52;8.50;;;5.03;;
83330;SDS011;73256;50.882;5.984;2023-12-14T14:16:17;8.90;;;4.93;;
83330;SDS011;73256;50.882;5.984;2023-12-14T14:18:43;10.03;;;4.83;;
83330;SDS011;73256;50.882;5.984;2023-12-14T14:21:08;8.57;;;5.03;;
83330;SDS011;73256;50.882;5.984;2023-12-14T14:23:34;8.37;;;5.23;;
83330;SDS011;73256;50.882;5.984;2023-12-14T14:26:00;11.38;;;4.78;;
83330;SDS011;73256;50.882;5.984;2023-12-14T14:28:25;9.53;;;4.80;;
83330;SDS011;73256;50.882;5.984;2023-12-14T14:30:51;8.95;;;4.63;;